createdAt,value
2019-01-29T00:01:28.872Z,1.60
2019-01-29T00:04:13.689Z,1.60
2019-01-29T00:06:58.957Z,1.40
2019-01-29T00:09:44.112Z,1.20
2019-01-29T00:12:29.612Z,1.10
2019-01-29T00:15:14.959Z,1.10
2019-01-29T00:18:00.089Z,1.10
2019-01-29T00:20:45.331Z,1.20
2019-01-29T00:23:30.509Z,1.20
2019-01-29T00:26:16.089Z,1.10
2019-01-29T00:29:01.573Z,1.40
2019-01-29T00:31:46.598Z,1.20
2019-01-29T00:34:31.320Z,1.20
2019-01-29T00:37:16.508Z,1.10
2019-01-29T00:40:01.204Z,1.10
2019-01-29T00:42:46.599Z,1.20
2019-01-29T00:45:31.587Z,1.10
2019-01-29T00:48:16.449Z,1.20
2019-01-29T00:51:01.764Z,1.20
2019-01-29T00:53:46.432Z,1.30
2019-01-29T00:56:31.249Z,1.30
2019-01-29T00:59:16.659Z,1.40
2019-01-29T01:02:01.731Z,1.40
2019-01-29T01:04:46.911Z,1.50
2019-01-29T01:07:31.795Z,1.50
2019-01-29T01:10:19.494Z,1.50
2019-01-29T01:13:04.291Z,1.80
2019-01-29T01:15:49.047Z,1.50
2019-01-29T01:18:34.090Z,1.50
2019-01-29T01:21:18.797Z,1.50
2019-01-29T01:24:03.447Z,1.60
2019-01-29T01:26:48.247Z,1.50
2019-01-29T01:29:33.707Z,1.60
2019-01-29T01:32:19.455Z,1.60
2019-01-29T01:35:04.463Z,1.60
2019-01-29T01:37:49.481Z,1.70
2019-01-29T01:40:34.346Z,1.70
2019-01-29T01:43:19.682Z,1.80
2019-01-29T01:46:04.694Z,2.00
2019-01-29T01:48:49.925Z,1.80
2019-01-29T01:51:34.782Z,1.90
2019-01-29T01:54:20.106Z,1.70
2019-01-29T01:57:05.723Z,1.70
2019-01-29T01:59:51.017Z,1.70
2019-01-29T02:02:35.979Z,1.70
2019-01-29T02:05:21.025Z,1.70
2019-01-29T02:08:06.227Z,1.70
2019-01-29T02:10:51.353Z,1.60
2019-01-29T02:13:36.278Z,1.60
2019-01-29T02:16:21.581Z,1.60
2019-01-29T02:19:06.602Z,1.60
2019-01-29T02:21:51.688Z,1.60
2019-01-29T02:24:36.940Z,1.70
2019-01-29T02:27:21.719Z,1.70
2019-01-29T02:30:15.602Z,1.60
2019-01-29T02:33:00.433Z,1.60
2019-01-29T02:35:45.206Z,1.60
2019-01-29T02:38:29.944Z,1.60
2019-01-29T02:41:17.610Z,1.60
2019-01-29T02:44:02.404Z,1.60
2019-01-29T02:46:47.112Z,1.70
2019-01-29T02:49:32.475Z,1.60
2019-01-29T02:52:17.247Z,1.70
2019-01-29T02:55:02.830Z,1.70
2019-01-29T02:57:47.749Z,1.70
2019-01-29T03:00:33.213Z,1.70
2019-01-29T03:03:18.608Z,1.70
2019-01-29T03:06:03.526Z,1.70
2019-01-29T03:08:48.808Z,1.70
2019-01-29T03:11:34.077Z,1.80
2019-01-29T03:14:19.145Z,1.80
2019-01-29T03:17:04.124Z,1.70
2019-01-29T03:19:48.819Z,1.70
2019-01-29T03:22:34.172Z,1.70
2019-01-29T03:25:19.136Z,1.80
2019-01-29T03:28:04.266Z,1.80
2019-01-29T03:30:49.037Z,1.90
2019-01-29T03:33:33.799Z,1.80
2019-01-29T03:36:18.482Z,1.70
2019-01-29T03:39:06.965Z,1.60
2019-01-29T03:41:52.338Z,1.70
2019-01-29T03:44:37.641Z,1.70
2019-01-29T03:47:23.096Z,1.60
2019-01-29T03:50:11.161Z,1.70
2019-01-29T03:52:56.192Z,1.50
2019-01-29T03:55:41.283Z,1.50
2019-01-29T03:58:26.000Z,1.50
2019-01-29T04:01:11.843Z,1.60
2019-01-29T04:03:56.551Z,1.60
2019-01-29T04:06:41.852Z,1.60
2019-01-29T04:09:27.323Z,1.70
2019-01-29T04:12:12.485Z,1.70
2019-01-29T04:14:57.453Z,1.60
2019-01-29T04:17:42.622Z,1.90
2019-01-29T04:20:27.359Z,1.60
2019-01-29T04:23:12.043Z,1.60
2019-01-29T04:25:57.276Z,1.40
2019-01-29T04:28:43.062Z,1.30
2019-01-29T04:31:27.979Z,1.30
2019-01-29T04:34:13.565Z,1.30
2019-01-29T04:36:58.720Z,1.40
2019-01-29T04:39:43.670Z,1.50
2019-01-29T04:42:28.391Z,1.60
2019-01-29T04:45:15.745Z,1.70
2019-01-29T04:48:01.083Z,1.80
2019-01-29T04:50:46.280Z,1.80
2019-01-29T04:53:31.148Z,1.80
2019-01-29T04:56:16.435Z,1.90
2019-01-29T04:59:01.681Z,1.90
2019-01-29T05:01:47.127Z,2.20
2019-01-29T05:04:32.336Z,2.00
2019-01-29T05:07:17.179Z,2.00
2019-01-29T05:10:05.749Z,2.00
2019-01-29T05:12:50.740Z,2.20
2019-01-29T05:15:35.882Z,2.00
2019-01-29T05:18:21.030Z,2.00
2019-01-29T05:21:06.587Z,2.00
2019-01-29T05:23:51.554Z,2.00
2019-01-29T05:26:37.543Z,1.90
2019-01-29T05:29:22.479Z,2.00
2019-01-29T05:32:07.959Z,2.00
2019-01-29T05:34:53.031Z,2.00
2019-01-29T05:37:37.998Z,2.00
2019-01-29T05:40:43.013Z,2.00
2019-01-29T05:43:28.182Z,2.50
2019-01-29T05:46:13.858Z,2.00
2019-01-29T05:48:58.715Z,2.00
2019-01-29T05:51:43.843Z,2.00
2019-01-29T05:54:28.615Z,2.00
2019-01-29T05:57:13.900Z,1.90
2019-01-29T05:59:59.179Z,1.90
2019-01-29T06:02:44.512Z,1.90
2019-01-29T06:05:29.797Z,1.90
2019-01-29T06:08:14.923Z,1.90
2019-01-29T06:10:59.669Z,1.90
2019-01-29T06:13:44.936Z,1.90
2019-01-29T06:16:30.060Z,2.00
2019-01-29T06:19:15.266Z,2.00
2019-01-29T06:22:00.157Z,2.00
2019-01-29T06:24:45.550Z,2.00
2019-01-29T06:27:31.051Z,1.80
2019-01-29T06:30:18.234Z,1.70
2019-01-29T06:33:03.286Z,1.70
2019-01-29T06:35:48.362Z,1.60
2019-01-29T06:38:56.175Z,1.50
2019-01-29T06:41:41.385Z,0.80
2019-01-29T06:44:26.761Z,1.30
2019-01-29T06:47:11.978Z,1.70
2019-01-29T06:49:57.011Z,1.30
2019-01-29T06:52:41.748Z,1.30
2019-01-29T06:55:26.976Z,1.30
2019-01-29T06:58:12.752Z,1.30
2019-01-29T07:00:57.879Z,1.30
2019-01-29T07:03:43.070Z,1.30
2019-01-29T07:06:27.781Z,1.30
2019-01-29T07:09:12.915Z,1.20
2019-01-29T07:11:59.482Z,1.20
2019-01-29T07:14:44.512Z,1.10
2019-01-29T07:17:30.535Z,1.30
2019-01-29T07:20:15.807Z,1.30
2019-01-29T07:23:01.006Z,1.30
2019-01-29T07:25:46.878Z,1.50
2019-01-29T07:28:31.679Z,1.60
2019-01-29T07:31:16.660Z,1.30
2019-01-29T07:34:01.875Z,1.30
2019-01-29T07:36:47.308Z,1.40
2019-01-29T07:39:32.460Z,1.30
2019-01-29T07:42:37.379Z,1.30
2019-01-29T07:45:22.548Z,1.90
2019-01-29T07:48:07.756Z,1.40
2019-01-29T07:50:53.122Z,1.50
2019-01-29T07:53:38.517Z,1.40
2019-01-29T07:56:23.777Z,1.30
2019-01-29T07:59:09.122Z,1.50
2019-01-29T08:01:54.045Z,1.30
2019-01-29T08:04:39.161Z,1.30
2019-01-29T08:07:24.333Z,1.50
2019-01-29T08:10:14.246Z,1.40
2019-01-29T08:12:59.232Z,1.20
2019-01-29T08:15:44.549Z,1.30
2019-01-29T08:18:29.671Z,1.90
2019-01-29T08:21:15.088Z,1.30
2019-01-29T08:24:00.511Z,1.40
2019-01-29T08:26:45.480Z,1.50
2019-01-29T08:29:30.710Z,1.50
2019-01-29T08:32:16.482Z,1.40
2019-01-29T08:35:01.892Z,1.40
2019-01-29T08:37:46.758Z,1.40
2019-01-29T08:40:31.644Z,1.40
2019-01-29T08:43:16.766Z,1.60
2019-01-29T08:46:02.121Z,1.40
2019-01-29T08:48:47.357Z,1.40
2019-01-29T08:51:32.643Z,1.40
2019-01-29T08:54:17.508Z,1.40
2019-01-29T08:57:02.927Z,1.40
2019-01-29T08:59:48.037Z,1.40
2019-01-29T09:02:32.933Z,1.40
2019-01-29T09:05:18.335Z,1.50
2019-01-29T09:08:03.377Z,1.40
2019-01-29T09:10:48.633Z,1.40
2019-01-29T09:13:33.390Z,1.50
2019-01-29T09:16:18.566Z,1.50
2019-01-29T09:19:03.519Z,1.60
2019-01-29T09:21:48.507Z,1.50
2019-01-29T09:24:33.387Z,1.50
2019-01-29T09:27:18.720Z,1.60
2019-01-29T09:30:10.354Z,1.70
2019-01-29T09:32:55.281Z,1.70
2019-01-29T09:35:40.747Z,1.70
2019-01-29T09:38:25.565Z,1.80
2019-01-29T09:41:10.386Z,2.00
2019-01-29T09:43:55.547Z,1.70
2019-01-29T09:46:41.245Z,1.70
2019-01-29T09:49:26.700Z,1.70
2019-01-29T09:52:11.920Z,1.40
2019-01-29T09:54:57.059Z,1.70
2019-01-29T09:57:42.498Z,1.70
2019-01-29T10:00:35.814Z,1.60
2019-01-29T10:03:21.167Z,1.60
2019-01-29T10:06:06.198Z,1.70
2019-01-29T10:08:51.389Z,1.70
2019-01-29T10:11:36.475Z,1.70
2019-01-29T10:14:21.168Z,1.70
2019-01-29T10:17:06.663Z,1.80
2019-01-29T10:19:51.776Z,1.70
2019-01-29T10:22:37.120Z,1.80
2019-01-29T10:25:22.457Z,1.90
2019-01-29T10:28:07.782Z,1.80
2019-01-29T10:30:52.790Z,1.80
2019-01-29T10:33:38.288Z,1.80
2019-01-29T10:36:23.398Z,2.10
2019-01-29T10:39:10.082Z,1.80
2019-01-29T10:41:55.746Z,1.80
2019-01-29T10:44:40.706Z,1.70
2019-01-29T10:47:25.422Z,1.80
2019-01-29T10:50:14.390Z,1.80
2019-01-29T10:52:59.476Z,1.80
2019-01-29T10:55:47.425Z,1.90
2019-01-29T10:58:31.414Z,1.90
2019-01-29T11:01:16.189Z,1.90
2019-01-29T11:04:01.515Z,1.90
2019-01-29T11:06:46.208Z,1.80
2019-01-29T11:09:30.993Z,1.90
2019-01-29T11:12:15.936Z,1.80
2019-01-29T11:15:00.967Z,1.90
2019-01-29T11:17:46.248Z,1.90
2019-01-29T11:20:31.472Z,2.10
2019-01-29T11:23:16.634Z,1.90
2019-01-29T11:26:01.500Z,2.00
2019-01-29T11:28:46.822Z,2.00
2019-01-29T11:31:31.754Z,2.20
2019-01-29T11:34:16.974Z,1.90
2019-01-29T11:37:02.022Z,1.90
2019-01-29T11:39:47.250Z,1.90
2019-01-29T11:42:32.242Z,1.90
2019-01-29T11:45:26.402Z,2.00
2019-01-29T11:48:11.347Z,2.20
2019-01-29T11:50:56.427Z,2.10
2019-01-29T11:53:41.797Z,1.80
2019-01-29T11:56:27.007Z,1.80
2019-01-29T11:59:12.477Z,1.80
2019-01-29T12:01:57.570Z,1.80
2019-01-29T12:04:43.240Z,1.70
2019-01-29T12:07:28.090Z,1.90
2019-01-29T12:10:13.505Z,2.20
2019-01-29T12:12:58.479Z,2.20
2019-01-29T12:15:43.721Z,1.70
2019-01-29T12:18:29.228Z,1.50
2019-01-29T12:21:14.601Z,1.70
2019-01-29T12:23:59.755Z,1.70
2019-01-29T12:26:45.022Z,1.70
2019-01-29T12:29:30.466Z,1.90
2019-01-29T12:32:15.991Z,1.90
2019-01-29T12:35:01.279Z,1.70
2019-01-29T12:37:46.370Z,1.70
2019-01-29T12:40:31.464Z,1.70
2019-01-29T12:43:16.736Z,1.60
2019-01-29T12:46:01.398Z,1.60
2019-01-29T12:48:46.193Z,1.80
2019-01-29T12:51:33.031Z,1.50
2019-01-29T12:54:18.329Z,1.80
2019-01-29T12:57:06.283Z,1.30
2019-01-29T12:59:56.017Z,1.40
2019-01-29T13:02:41.598Z,1.40
2019-01-29T13:05:26.601Z,1.50
2019-01-29T13:08:13.953Z,1.40
2019-01-29T13:10:58.729Z,1.50
2019-01-29T13:13:44.001Z,1.50
2019-01-29T13:16:29.324Z,1.50
2019-01-29T13:19:14.440Z,1.50
2019-01-29T13:21:59.648Z,1.50
2019-01-29T13:24:45.044Z,1.60
2019-01-29T13:27:30.866Z,1.50
2019-01-29T13:30:28.846Z,1.60
2019-01-29T13:33:14.432Z,1.60
2019-01-29T13:35:59.181Z,1.50
2019-01-29T13:38:44.088Z,1.50
2019-01-29T13:41:28.892Z,1.50
2019-01-29T13:44:14.290Z,1.50
2019-01-29T13:46:59.218Z,1.50
2019-01-29T13:49:44.106Z,1.50
2019-01-29T13:52:29.535Z,1.50
2019-01-29T13:55:17.794Z,1.50
2019-01-29T13:58:04.593Z,1.50
2019-01-29T14:00:49.574Z,1.40
2019-01-29T14:03:34.769Z,1.60
2019-01-29T14:06:20.059Z,1.50
2019-01-29T14:09:06.657Z,1.70
2019-01-29T14:11:51.951Z,1.40
2019-01-29T14:14:37.487Z,1.50
2019-01-29T14:17:22.762Z,1.40
2019-01-29T14:20:11.892Z,1.50
2019-01-29T14:22:56.822Z,1.60
2019-01-29T14:25:42.120Z,1.40
2019-01-29T14:28:27.563Z,1.30
2019-01-29T14:31:12.778Z,1.40
2019-01-29T14:33:57.517Z,1.30
2019-01-29T14:36:43.292Z,1.30
2019-01-29T14:39:28.834Z,1.30
2019-01-29T14:42:14.165Z,1.30
2019-01-29T14:44:59.158Z,1.30
2019-01-29T14:47:44.377Z,1.30
2019-01-29T14:50:29.785Z,1.20
2019-01-29T14:53:15.171Z,1.20
2019-01-29T14:56:00.389Z,1.10
2019-01-29T14:58:45.546Z,0.90
2019-01-29T15:01:50.919Z,1.10
2019-01-29T15:04:35.860Z,1.20
2019-01-29T15:07:29.885Z,1.00
2019-01-29T15:10:12.236Z,1.00
2019-01-29T15:12:57.429Z,1.00
2019-01-29T15:15:47.250Z,1.00
2019-01-29T15:18:34.381Z,1.30
2019-01-29T15:21:19.410Z,0.90
2019-01-29T15:24:04.884Z,1.30
2019-01-29T15:26:49.824Z,1.20
2019-01-29T15:29:34.976Z,0.90
2019-01-29T15:32:20.172Z,0.90
2019-01-29T15:35:07.408Z,0.90
2019-01-29T15:37:52.336Z,0.80
2019-01-29T15:40:40.265Z,0.80
2019-01-29T15:43:25.414Z,1.20
2019-01-29T15:46:11.049Z,0.80
2019-01-29T15:48:56.573Z,0.60
2019-01-29T15:51:41.710Z,0.60
2019-01-29T15:54:27.134Z,0.70
2019-01-29T15:57:14.365Z,0.40
2019-01-29T16:00:02.683Z,0.40
2019-01-29T16:02:47.770Z,0.30
2019-01-29T16:05:35.495Z,0.30
2019-01-29T16:08:20.739Z,0.30
2019-01-29T16:11:05.813Z,0.20
2019-01-29T16:13:51.065Z,0.20
2019-01-29T16:16:42.771Z,0.20
2019-01-29T16:19:28.327Z,0.10
2019-01-29T16:22:23.982Z,0.10
2019-01-29T16:25:10.197Z,0.00
2019-01-29T16:27:55.181Z,0.00
2019-01-29T16:30:40.425Z,0.00
2019-01-29T16:33:26.058Z,0.00
2019-01-29T16:36:13.366Z,-0.10
2019-01-29T16:38:58.272Z,0.10
2019-01-29T16:41:44.052Z,-0.10
2019-01-29T16:44:29.511Z,-0.10
2019-01-29T16:47:14.644Z,0.00
2019-01-29T16:50:00.210Z,0.00
2019-01-29T16:52:45.196Z,0.00
2019-01-29T16:55:31.790Z,0.10
2019-01-29T16:58:37.243Z,0.00
2019-01-29T17:01:22.194Z,0.10
2019-01-29T17:04:07.592Z,0.20
2019-01-29T17:06:52.407Z,0.20
2019-01-29T17:09:37.919Z,0.30
2019-01-29T17:12:23.747Z,0.30
2019-01-29T17:15:12.791Z,0.30
2019-01-29T17:17:58.886Z,0.30
2019-01-29T17:20:46.005Z,0.10
2019-01-29T17:23:32.156Z,0.30
2019-01-29T17:26:18.080Z,0.20
2019-01-29T17:29:03.811Z,0.20
2019-01-29T17:31:56.978Z,0.20
2019-01-29T17:34:41.135Z,0.20
2019-01-29T17:37:26.296Z,0.10
2019-01-29T17:40:15.706Z,0.20
2019-01-29T17:43:01.150Z,0.20
2019-01-29T17:45:49.061Z,0.30
2019-01-29T17:48:34.154Z,0.20
2019-01-29T17:51:19.207Z,0.30
2019-01-29T17:54:07.296Z,0.30
2019-01-29T17:56:52.600Z,0.20
2019-01-29T17:59:40.830Z,0.30
2019-01-29T18:02:25.755Z,0.30
2019-01-29T18:05:10.955Z,0.30
2019-01-29T18:07:58.767Z,0.30
2019-01-29T18:10:44.217Z,0.40
2019-01-29T18:13:29.479Z,0.40
2019-01-29T18:16:16.658Z,0.40
2019-01-29T18:19:01.655Z,0.50
2019-01-29T18:21:56.709Z,0.40
2019-01-29T18:24:37.530Z,0.40
2019-01-29T18:27:22.568Z,0.50
2019-01-29T18:30:23.734Z,0.50
2019-01-29T18:33:08.869Z,0.50
2019-01-29T18:35:54.388Z,0.50
2019-01-29T18:38:39.859Z,0.40
2019-01-29T18:41:24.892Z,0.50
2019-01-29T18:44:10.824Z,0.70
2019-01-29T18:46:55.942Z,0.90
2019-01-29T18:49:41.232Z,0.50
2019-01-29T18:52:26.304Z,0.50
2019-01-29T18:55:11.878Z,0.60
2019-01-29T18:57:57.145Z,0.50
2019-01-29T19:00:42.133Z,0.70
2019-01-29T19:03:27.098Z,0.50
2019-01-29T19:06:12.125Z,0.40
2019-01-29T19:08:57.292Z,0.50
2019-01-29T19:11:42.677Z,0.70
2019-01-29T19:14:27.946Z,0.50
2019-01-29T19:17:12.939Z,0.50
2019-01-29T19:19:57.913Z,0.50
2019-01-29T19:22:42.807Z,0.40
2019-01-29T19:25:27.936Z,0.40
2019-01-29T19:28:21.649Z,0.40
2019-01-29T19:30:59.541Z,0.40
2019-01-29T19:33:44.957Z,0.40
2019-01-29T19:36:31.374Z,0.40
2019-01-29T19:39:16.534Z,0.90
2019-01-29T19:42:01.811Z,0.50
2019-01-29T19:44:47.057Z,0.90
2019-01-29T19:47:32.390Z,0.40
2019-01-29T19:50:20.940Z,0.40
2019-01-29T19:53:05.844Z,0.40
2019-01-29T19:55:51.055Z,0.40
2019-01-29T19:58:36.349Z,0.40
2019-01-29T20:01:21.564Z,0.40
2019-01-29T20:04:06.863Z,0.40
2019-01-29T20:06:51.845Z,0.50
2019-01-29T20:09:36.761Z,0.50
2019-01-29T20:12:21.549Z,0.40
2019-01-29T20:15:13.152Z,0.40
2019-01-29T20:17:58.250Z,0.40
2019-01-29T20:20:43.759Z,0.50
2019-01-29T20:23:29.029Z,0.60
2019-01-29T20:26:14.117Z,0.70
2019-01-29T20:28:58.937Z,0.80
2019-01-29T20:31:44.341Z,0.80
2019-01-29T20:34:29.513Z,0.90
2019-01-29T20:37:14.766Z,0.90
2019-01-29T20:40:00.260Z,0.90
2019-01-29T20:42:45.473Z,1.00
2019-01-29T20:45:30.916Z,1.00
2019-01-29T20:48:15.957Z,1.00
2019-01-29T20:51:01.476Z,1.00
2019-01-29T20:53:46.590Z,1.00
2019-01-29T20:56:31.850Z,1.20
2019-01-29T20:59:17.018Z,1.00
2019-01-29T21:02:03.658Z,1.00
2019-01-29T21:04:48.450Z,1.00
2019-01-29T21:07:33.784Z,1.00
2019-01-29T21:10:20.560Z,0.90
2019-01-29T21:13:05.894Z,0.80
2019-01-29T21:15:50.809Z,0.70
2019-01-29T21:18:35.621Z,0.80
2019-01-29T21:21:20.627Z,0.70
2019-01-29T21:24:05.889Z,0.70
2019-01-29T21:26:51.080Z,0.60
2019-01-29T21:29:36.347Z,0.50
2019-01-29T21:32:21.915Z,0.50
2019-01-29T21:35:06.559Z,0.40
2019-01-29T21:37:51.556Z,0.40
2019-01-29T21:40:36.728Z,0.40
2019-01-29T21:43:22.066Z,0.40
2019-01-29T21:46:07.710Z,0.40
2019-01-29T21:48:52.752Z,0.40
2019-01-29T21:51:38.114Z,0.40
2019-01-29T21:54:23.305Z,0.30
2019-01-29T21:57:08.682Z,0.30
2019-01-29T21:59:54.267Z,0.40
2019-01-29T22:02:39.765Z,0.60
2019-01-29T22:05:24.695Z,0.60
2019-01-29T22:08:09.653Z,0.60
2019-01-29T22:10:55.357Z,1.00
2019-01-29T22:13:40.731Z,0.80
2019-01-29T22:16:26.632Z,0.80
2019-01-29T22:19:12.855Z,0.90
2019-01-29T22:21:58.047Z,0.90
2019-01-29T22:24:43.537Z,0.80
2019-01-29T22:27:28.883Z,0.90
2019-01-29T22:30:28.821Z,0.90
2019-01-29T22:33:14.837Z,1.00
2019-01-29T22:36:00.232Z,0.90
2019-01-29T22:38:45.790Z,1.30
2019-01-29T22:41:31.016Z,0.90
2019-01-29T22:44:16.290Z,0.90
2019-01-29T22:47:01.155Z,0.90
2019-01-29T22:49:46.248Z,0.90
2019-01-29T22:52:31.228Z,0.60
2019-01-29T22:55:16.414Z,0.40
2019-01-29T22:58:01.744Z,0.40
2019-01-29T23:00:55.128Z,0.50
2019-01-29T23:03:42.110Z,0.30
2019-01-29T23:06:34.156Z,0.30
2019-01-29T23:09:19.064Z,0.40
2019-01-29T23:12:04.364Z,0.60
2019-01-29T23:14:49.921Z,0.60
2019-01-29T23:17:34.980Z,1.00
2019-01-29T23:20:20.025Z,0.80
2019-01-29T23:23:04.836Z,0.80
2019-01-29T23:25:49.964Z,0.80
2019-01-29T23:28:35.234Z,0.90
2019-01-29T23:31:20.859Z,0.80
2019-01-29T23:34:05.925Z,0.80
2019-01-29T23:36:51.087Z,0.80
2019-01-29T23:39:35.932Z,0.80
2019-01-29T23:42:21.066Z,0.80
2019-01-29T23:45:09.524Z,0.90
2019-01-29T23:48:00.354Z,1.30
2019-01-29T23:50:45.422Z,0.90
2019-01-29T23:53:30.306Z,0.80
2019-01-29T23:56:15.464Z,0.90
2019-01-29T23:59:00.796Z,0.90
